createdAt,value
2019-04-21T00:00:32.173Z,18.77
2019-04-21T00:06:02.982Z,19.53
2019-04-21T00:11:22.120Z,18.75
2019-04-21T00:15:54.999Z,19.63
2019-04-21T00:21:21.137Z,19.03
2019-04-21T00:26:17.047Z,19.79
2019-04-21T00:31:23.018Z,21.45
2019-04-21T00:36:15.979Z,19.97
2019-04-21T00:41:39.588Z,20.54
2019-04-21T00:46:51.941Z,19.88
2019-04-21T00:56:50.022Z,21.46
2019-04-21T01:01:55.445Z,20.33
2019-04-21T01:07:09.348Z,20.11
2019-04-21T01:12:03.809Z,21.48
2019-04-21T01:17:14.579Z,22.70
2019-04-21T01:21:54.603Z,21.02
2019-04-21T01:27:11.132Z,23.99
2019-04-21T01:32:31.248Z,22.06
2019-04-21T01:42:53.947Z,20.33
2019-04-21T01:47:31.504Z,21.24
2019-04-21T01:52:51.415Z,20.31
2019-04-21T01:57:42.635Z,20.54
2019-04-21T02:08:03.643Z,21.67
2019-04-21T02:13:14.469Z,21.76
2019-04-21T02:18:33.370Z,20.92
2019-04-21T02:23:34.351Z,20.65
2019-04-21T02:28:36.731Z,23.41
2019-04-21T02:33:54.242Z,22.55
2019-04-21T02:39:15.707Z,27.14
2019-04-21T02:49:11.212Z,24.91
2019-04-21T02:54:35.994Z,22.93
2019-04-21T03:04:18.819Z,22.12
2019-04-21T03:09:35.849Z,22.30
2019-04-21T03:24:39.914Z,23.35
2019-04-21T03:29:59.423Z,23.10
2019-04-21T03:35:25.676Z,23.39
2019-04-21T03:45:27.151Z,25.78
2019-04-21T03:55:41.511Z,24.97
2019-04-21T04:00:33.732Z,23.15
2019-04-21T04:10:50.390Z,24.66
2019-04-21T04:15:39.060Z,26.24
2019-04-21T04:20:28.061Z,23.38
2019-04-21T04:25:35.467Z,25.84
2019-04-21T04:30:54.271Z,26.66
2019-04-21T04:36:30.206Z,23.53
2019-04-21T04:41:06.142Z,27.31
2019-04-21T04:46:09.592Z,24.47
2019-04-21T04:56:06.002Z,26.53
2019-04-21T05:06:37.243Z,26.00
2019-04-21T05:26:28.602Z,25.10
2019-04-21T05:31:47.704Z,25.43
2019-04-21T05:36:50.320Z,28.73
2019-04-21T05:41:47.801Z,28.51
2019-04-21T05:52:03.739Z,30.32
2019-04-21T05:57:11.816Z,30.19
2019-04-21T06:02:24.251Z,27.63
2019-04-21T06:12:29.904Z,27.90
2019-04-21T06:17:44.189Z,25.38
2019-04-21T06:23:06.269Z,27.39
2019-04-21T06:27:45.816Z,27.20
2019-04-21T06:38:22.270Z,27.20
2019-04-21T06:43:22.794Z,29.69
2019-04-21T06:58:26.277Z,37.32
2019-04-21T07:03:38.703Z,36.99
2019-04-21T07:08:46.430Z,39.62
2019-04-21T07:13:44.097Z,42.35
2019-04-21T07:19:03.984Z,39.90
2019-04-21T07:24:12.678Z,39.23
2019-04-21T07:29:14.284Z,40.46
2019-04-21T07:34:21.638Z,35.41
2019-04-21T07:39:22.121Z,38.23
2019-04-21T07:44:34.935Z,38.25
2019-04-21T07:49:32.892Z,33.32
2019-04-21T07:54:37.368Z,31.66
2019-04-21T08:00:04.115Z,29.29
2019-04-21T08:05:04.116Z,31.28
2019-04-21T08:09:56.996Z,30.53
2019-04-21T08:15:15.471Z,32.40
2019-04-21T08:20:27.029Z,30.55
2019-04-21T08:25:16.498Z,32.07
2019-04-21T08:30:27.509Z,33.03
2019-04-21T08:40:45.149Z,32.20
2019-04-21T08:45:35.913Z,28.74
2019-04-21T08:56:04.144Z,32.54
2019-04-21T09:00:46.817Z,30.08
2019-04-21T09:05:59.762Z,32.35
2019-04-21T09:10:59.390Z,30.12
2019-04-21T09:16:21.994Z,27.30
2019-04-21T09:21:16.275Z,29.16
2019-04-21T09:26:18.607Z,29.86
2019-04-21T09:31:08.584Z,28.33
2019-04-21T09:36:18.494Z,25.48
2019-04-21T09:41:16.393Z,25.58
2019-04-21T09:46:09.606Z,28.60
2019-04-21T09:51:17.867Z,25.06
2019-04-21T09:56:35.911Z,28.93
2019-04-21T10:01:54.970Z,23.47
2019-04-21T10:06:33.002Z,25.14
2019-04-21T10:11:39.919Z,27.94
2019-04-21T10:38:44.720Z,41.52
2019-04-21T10:43:38.241Z,26.67
2019-04-21T10:48:46.945Z,28.51
2019-04-21T10:53:54.664Z,28.37
2019-04-21T10:59:14.539Z,29.33
2019-04-21T11:04:21.830Z,26.38
2019-04-21T11:09:03.699Z,25.11
2019-04-21T11:14:13.378Z,32.64
2019-04-21T11:19:32.825Z,26.11
2019-04-21T11:24:33.250Z,24.82
2019-04-21T11:29:34.975Z,25.57
2019-04-21T11:34:34.186Z,24.36
2019-04-21T11:39:29.234Z,22.17
2019-04-21T11:44:42.450Z,23.72
2019-04-21T11:49:43.157Z,20.81
2019-04-21T11:59:47.986Z,21.45
2019-04-21T12:04:47.583Z,19.76
2019-04-21T12:09:35.429Z,21.72
2019-04-21T12:14:45.812Z,20.53
2019-04-21T12:19:52.687Z,20.46
2019-04-21T12:25:13.277Z,21.33
2019-04-21T12:30:13.561Z,20.92
2019-04-21T12:35:15.882Z,19.94
2019-04-21T12:40:03.334Z,18.91
2019-04-21T12:45:24.037Z,22.73
2019-04-21T12:50:23.652Z,20.86
2019-04-21T12:55:30.663Z,21.33
2019-04-21T13:00:24.810Z,19.83
2019-04-21T13:05:25.319Z,22.57
2019-04-21T13:10:24.471Z,19.94
2019-04-21T13:15:25.409Z,22.34
2019-04-21T13:20:25.397Z,24.22
2019-04-21T13:25:13.957Z,25.54
2019-04-21T13:30:20.193Z,21.39
2019-04-21T13:40:53.376Z,25.78
2019-04-21T13:45:32.184Z,28.09
2019-04-21T13:50:39.518Z,17.97
2019-04-21T13:55:46.832Z,20.53
2019-04-21T14:06:16.231Z,18.40
2019-04-21T14:11:17.523Z,17.64
2019-04-21T14:16:04.086Z,17.19
2019-04-21T14:22:20.118Z,20.93
2019-04-21T14:32:34.050Z,14.60
2019-04-21T14:37:22.626Z,15.30
2019-04-21T14:42:42.741Z,18.12
2019-04-21T14:47:31.525Z,15.16
2019-04-21T14:52:39.169Z,15.79
2019-04-21T14:57:47.384Z,14.90
2019-04-21T15:03:07.647Z,17.30
2019-04-21T15:12:56.292Z,18.16
2019-04-21T15:28:30.684Z,14.00
2019-04-21T15:33:16.272Z,15.72
2019-04-21T15:43:40.567Z,15.35
2019-04-21T15:48:41.196Z,14.42
2019-04-21T15:53:41.641Z,15.59
2019-04-21T15:58:28.375Z,14.73
2019-04-21T16:03:49.053Z,13.18
2019-04-21T16:08:52.506Z,16.04
2019-04-21T16:13:37.372Z,14.77
2019-04-21T16:18:43.767Z,14.70
2019-04-21T16:23:56.228Z,17.23
2019-04-21T16:29:15.459Z,15.28
2019-04-21T16:34:03.122Z,13.68
2019-04-21T16:39:09.559Z,13.82
2019-04-21T16:49:21.960Z,14.07
2019-04-21T16:54:28.158Z,13.48
2019-04-21T16:59:48.598Z,14.14
2019-04-21T17:04:48.878Z,14.94
2019-04-21T17:15:07.594Z,13.75
2019-04-21T17:19:45.614Z,13.67
2019-04-21T17:24:50.505Z,11.89
2019-04-21T17:30:10.574Z,14.34
2019-04-21T17:35:10.190Z,16.97
2019-04-21T17:39:58.749Z,14.44
2019-04-21T17:45:19.347Z,14.68
2019-04-21T17:50:07.658Z,13.75
2019-04-21T17:55:21.898Z,16.33
2019-04-21T18:05:54.621Z,14.00
2019-04-21T18:10:34.855Z,14.25
2019-04-21T18:20:50.164Z,14.34
2019-04-21T18:25:57.841Z,13.87
2019-04-21T18:30:49.995Z,12.18
2019-04-21T18:35:52.931Z,11.26
2019-04-21T18:40:41.411Z,12.01
2019-04-21T18:46:20.519Z,11.66
2019-04-21T18:51:02.996Z,11.01
2019-04-21T18:56:04.894Z,11.24
2019-04-21T19:00:45.911Z,12.14
2019-04-21T19:05:59.393Z,11.23
2019-04-21T19:11:18.926Z,10.93
2019-04-21T19:16:38.683Z,15.50
2019-04-21T19:21:52.501Z,11.80
2019-04-21T19:26:52.347Z,10.88
2019-04-21T19:31:49.278Z,13.86
2019-04-21T19:41:28.047Z,15.26
2019-04-21T19:47:01.281Z,15.38
2019-04-21T19:51:52.195Z,13.80
2019-04-21T19:56:43.001Z,14.92
2019-04-21T20:01:29.691Z,13.68
2019-04-21T20:11:58.099Z,20.83
2019-04-21T20:17:17.630Z,18.28
2019-04-21T20:22:05.378Z,16.60
2019-04-21T20:27:14.128Z,18.18
2019-04-21T20:32:35.103Z,17.04
2019-04-21T20:37:19.047Z,17.02
2019-04-21T20:42:24.307Z,19.35
2019-04-21T20:47:23.172Z,25.85
2019-04-21T20:52:36.989Z,20.34
2019-04-21T20:57:30.020Z,21.74
2019-04-21T21:02:36.576Z,23.48
2019-04-21T21:12:43.205Z,20.29
2019-04-21T21:22:39.277Z,20.06
2019-04-21T21:27:32.234Z,18.95
2019-04-21T21:32:37.332Z,18.18
2019-04-21T21:37:37.089Z,19.52
2019-04-21T21:42:08.059Z,19.57
2019-04-21T21:47:49.925Z,21.59
2019-04-21T21:52:25.819Z,23.17
2019-04-21T21:57:44.352Z,22.64
2019-04-21T22:02:40.750Z,24.36
2019-04-21T22:07:37.149Z,23.23
2019-04-21T22:12:22.768Z,26.85
2019-04-21T22:18:06.052Z,27.74
2019-04-21T22:27:46.910Z,26.68
2019-04-21T22:32:53.323Z,23.44
2019-04-21T22:37:48.779Z,23.93
2019-04-21T22:43:07.390Z,24.92
2019-04-21T22:48:02.992Z,25.09
2019-04-21T22:52:59.501Z,25.78
2019-04-21T22:57:58.689Z,25.80
2019-04-21T23:03:03.183Z,27.28
2019-04-21T23:08:01.369Z,27.03
2019-04-21T23:12:59.552Z,23.55
2019-04-21T23:18:17.705Z,27.43
2019-04-21T23:23:17.647Z,26.14
2019-04-21T23:28:11.499Z,27.86
2019-04-21T23:32:52.648Z,30.99
2019-04-21T23:38:07.257Z,25.20
2019-04-21T23:43:10.647Z,27.19
2019-04-21T23:48:01.663Z,30.57
2019-04-21T23:58:06.989Z,29.76
